Timbauba, Brazil
Current Conditions -  °F | °C
As of 9:00 PM on Thursday 18 Dec 2014 (Local Time) from SBJP Reporting Station
Few Clouds Few Clouds  
Wind Chill: 79°   Ceiling: Unl
Heat Index: 81°   Visibility: 6mi
Dew Point: 70°   Wind: 5mph
Humidity: 74%   Direction: 100°E
Pressure: 29.94"   Gusts: NA
Location:  7.51°S, 35.32°W
Report Text: SBJP 190000Z 10004KT 9999 FEW020 26/21 Q1014
Loading
Personal Weather Stations






























Interactive Weather Map New forecast layout! Learn more

10-Day Weather Forecast

Advertisements
Track Severe Weather on mobile